Time;durP1;ratioP1;P1;durP2;ratioP2;P2;SDS_P1;SDS_P2;PMS_P1;PMS_P2;Temp;Humidity;BMP_temperature;BMP_pressure;BME280_temperature;BME280_humidity;BME280_pressure;Samples;Min_cycle;Max_cycle;Signal;HPM_P1;HPM_P2
2020/12/27 00:00:18;;;;;;;4.25;3.85;;;;;;;;;;5073125;28;20200;-72
2020/12/27 00:02:44;;;;;;;5.10;3.97;;;;;;;;;;5088482;28;20179;-73
2020/12/27 00:05:10;;;;;;;4.25;3.80;;;;;;;;;;5092844;28;20194;-73
2020/12/27 00:07:37;;;;;;;4.45;4.05;;;;;;;;;;5093003;28;20199;-73
2020/12/27 00:10:05;;;;;;;3.92;3.63;;;;;;;;;;5091591;28;20195;-75
2020/12/27 00:12:31;;;;;;;4.15;3.75;;;;;;;;;;5093947;28;20247;-74
2020/12/27 00:14:57;;;;;;;4.00;3.60;;;;;;;;;;5096694;28;20183;-74
2020/12/27 00:17:23;;;;;;;10.50;8.18;;;;;;;;;;5096895;28;20210;-74
2020/12/27 00:19:49;;;;;;;5.90;3.95;;;;;;;;;;5096833;28;20218;-73
2020/12/27 00:22:16;;;;;;;4.00;3.45;;;;;;;;;;5097219;28;20254;-74
2020/12/27 00:24:42;;;;;;;4.03;3.65;;;;;;;;;;5096276;28;20254;-74
2020/12/27 00:27:08;;;;;;;4.13;3.72;;;;;;;;;;5096687;28;20214;-75
2020/12/27 00:29:34;;;;;;;3.80;3.40;;;;;;;;;;5086912;28;20204;-74
2020/12/27 00:32:00;;;;;;;5.18;4.10;;;;;;;;;;5076237;28;20184;-72
2020/12/27 00:34:26;;;;;;;4.63;4.20;;;;;;;;;;5075865;28;20667;-73
2020/12/27 00:36:56;;;;;;;3.72;3.42;;;;;;;;;;5076165;28;20188;-72
2020/12/27 00:39:22;;;;;;;4.35;3.95;;;;;;;;;;5076051;28;20176;-72
2020/12/27 00:41:49;;;;;;;4.00;3.60;;;;;;;;;;5079380;28;20171;-73
2020/12/27 00:44:15;;;;;;;6.40;3.90;;;;;;;;;;5096025;28;20184;-73
2020/12/27 00:46:41;;;;;;;5.85;5.30;;;;;;;;;;5093242;28;20180;-74
2020/12/27 00:49:07;;;;;;;3.65;3.35;;;;;;;;;;5076398;28;20180;-75
2020/12/27 00:51:33;;;;;;;4.50;4.10;;;;;;;;;;5076137;28;20177;-72
2020/12/27 00:53:59;;;;;;;4.68;4.28;;;;;;;;;;5075689;28;20203;-71
2020/12/27 00:56:25;;;;;;;4.90;4.30;;;;;;;;;;5089865;28;20212;-73
2020/12/27 00:58:51;;;;;;;4.50;4.10;;;;;;;;;;5088205;28;20171;-73
2020/12/27 01:01:17;;;;;;;4.63;4.22;;;;;;;;;;5096363;28;20605;-73
2020/12/27 01:03:44;;;;;;;3.90;3.60;;;;;;;;;;5095704;28;20228;-73
2020/12/27 01:06:10;;;;;;;5.75;4.70;;;;;;;;;;5095860;28;20187;-75
2020/12/27 01:08:36;;;;;;;5.47;4.57;;;;;;;;;;5096010;28;20678;-75
2020/12/27 01:11:03;;;;;;;7.38;5.95;;;;;;;;;;5081368;28;20204;-74
2020/12/27 01:13:29;;;;;;;6.55;4.40;;;;;;;;;;5075496;28;20263;-74
2020/12/27 01:15:56;;;;;;;4.03;3.65;;;;;;;;;;5075650;28;20322;-73
2020/12/27 01:18:22;;;;;;;13.95;9.30;;;;;;;;;;5075446;28;20617;-73
2020/12/27 01:20:48;;;;;;;5.15;4.50;;;;;;;;;;5092491;28;20231;-74
2020/12/27 01:23:14;;;;;;;4.68;4.25;;;;;;;;;;5095489;28;20268;-74
2020/12/27 01:25:40;;;;;;;4.90;4.43;;;;;;;;;;5095226;28;20655;-74
2020/12/27 01:28:06;;;;;;;14.60;9.57;;;;;;;;;;5095098;28;20167;-74
2020/12/27 01:30:32;;;;;;;6.97;4.35;;;;;;;;;;5078277;28;20210;-73
2020/12/27 01:32:58;;;;;;;5.30;4.45;;;;;;;;;;5093265;28;20167;-74
2020/12/27 01:35:24;;;;;;;7.65;4.18;;;;;;;;;;5094751;28;20664;-72
2020/12/27 01:37:50;;;;;;;8.10;7.30;;;;;;;;;;5085416;28;20176;-74
2020/12/27 01:40:16;;;;;;;4.70;4.30;;;;;;;;;;5079216;28;20214;-71
2020/12/27 01:42:42;;;;;;;6.25;5.05;;;;;;;;;;5086459;28;20587;-72
2020/12/27 01:45:09;;;;;;;4.80;4.05;;;;;;;;;;5094658;28;20193;-73
2020/12/27 01:47:36;;;;;;;6.50;4.90;;;;;;;;;;5095585;28;20218;-72
2020/12/27 01:50:04;;;;;;;6.70;5.35;;;;;;;;;;5080266;28;20592;-73
2020/12/27 01:52:30;;;;;;;6.43;5.45;;;;;;;;;;5094075;28;20180;-72
2020/12/27 01:54:56;;;;;;;17.45;13.15;;;;;;;;;;5090077;28;20168;-72
2020/12/27 01:57:29;;;;;;;5.75;5.05;;;;;;;;;;5093099;28;20710;-72
2020/12/27 01:59:55;;;;;;;6.30;4.88;;;;;;;;;;5079998;28;20254;-73
2020/12/27 02:02:22;;;;;;;6.03;4.95;;;;;;;;;;5075246;28;20475;-72
2020/12/27 02:04:48;;;;;;;7.25;5.72;;;;;;;;;;5083283;28;20194;-72
2020/12/27 02:07:14;;;;;;;6.30;5.70;;;;;;;;;;5086205;28;20188;-72
2020/12/27 02:09:40;;;;;;;7.15;5.20;;;;;;;;;;5092003;28;20611;-75
2020/12/27 02:12:07;;;;;;;5.30;4.80;;;;;;;;;;5074550;28;20176;-74
2020/12/27 02:14:34;;;;;;;5.97;5.38;;;;;;;;;;5081294;28;20617;-73
2020/12/27 02:17:01;;;;;;;7.22;4.68;;;;;;;;;;5094709;28;20588;-73
2020/12/27 02:19:27;;;;;;;5.90;4.53;;;;;;;;;;5092534;28;20191;-73
2020/12/27 02:21:53;;;;;;;4.72;3.80;;;;;;;;;;5093681;28;20175;-73
2020/12/27 02:24:19;;;;;;;5.95;5.40;;;;;;;;;;5073936;28;20226;-73
2020/12/27 02:26:58;;;;;;;6.35;4.40;;;;;;;;;;5087501;28;20183;-74
2020/12/27 02:29:25;;;;;;;4.70;4.20;;;;;;;;;;5092636;28;20260;-73
2020/12/27 02:31:52;;;;;;;4.00;3.60;;;;;;;;;;5094561;28;20187;-74
2020/12/27 02:34:19;;;;;;;4.10;3.65;;;;;;;;;;5084097;28;20541;-74
2020/12/27 02:36:45;;;;;;;4.63;4.10;;;;;;;;;;5086872;28;20623;-73
2020/12/27 02:39:11;;;;;;;4.60;3.60;;;;;;;;;;5087181;28;20263;-76
2020/12/27 02:41:38;;;;;;;4.10;3.70;;;;;;;;;;5087668;28;20239;-74
2020/12/27 02:44:04;;;;;;;4.03;3.33;;;;;;;;;;5081441;28;20186;-73
2020/12/27 02:46:30;;;;;;;3.95;3.20;;;;;;;;;;5094148;28;20182;-73
2020/12/27 02:48:56;;;;;;;4.72;3.42;;;;;;;;;;5093519;28;20175;-74
2020/12/27 02:51:22;;;;;;;4.95;3.83;;;;;;;;;;5094224;28;20197;-73
2020/12/27 02:53:52;;;;;;;3.47;3.13;;;;;;;;;;5093606;28;20209;-73
2020/12/27 02:56:19;;;;;;;3.00;2.70;;;;;;;;;;5093672;28;20203;-74
2020/12/27 02:58:45;;;;;;;3.80;3.40;;;;;;;;;;5093780;28;20171;-73
2020/12/27 03:01:11;;;;;;;3.45;3.15;;;;;;;;;;5079820;28;20196;-74
2020/12/27 03:03:39;;;;;;;2.90;2.47;;;;;;;;;;5093352;28;20600;-74
2020/12/27 03:06:05;;;;;;;3.50;3.17;;;;;;;;;;5091875;28;20554;-74
2020/12/27 03:08:31;;;;;;;2.80;2.33;;;;;;;;;;5088891;28;20188;-74
2020/12/27 03:10:57;;;;;;;3.30;3.00;;;;;;;;;;5079120;28;20278;-74
2020/12/27 03:13:23;;;;;;;3.20;2.90;;;;;;;;;;5077317;28;20184;-74
2020/12/27 03:15:51;;;;;;;10.98;6.57;;;;;;;;;;5072891;28;20271;-74
2020/12/27 03:18:18;;;;;;;2.72;2.47;;;;;;;;;;5075598;28;20180;-73
2020/12/27 03:20:44;;;;;;;2.80;2.50;;;;;;;;;;5090145;28;20202;-73
2020/12/27 03:23:10;;;;;;;6.03;2.70;;;;;;;;;;5082737;28;20264;-73
2020/12/27 03:25:37;;;;;;;2.80;2.47;;;;;;;;;;5079105;28;20168;-74
2020/12/27 03:28:03;;;;;;;3.35;3.05;;;;;;;;;;5080541;28;20172;-74
2020/12/27 03:30:29;;;;;;;10.23;6.60;;;;;;;;;;5091431;28;20210;-72
2020/12/27 03:32:55;;;;;;;3.00;2.60;;;;;;;;;;5079943;28;20179;-73
2020/12/27 03:35:21;;;;;;;2.50;2.30;;;;;;;;;;5077536;28;20172;-73
2020/12/27 03:37:47;;;;;;;2.97;2.33;;;;;;;;;;5080104;28;20204;-74
2020/12/27 03:40:14;;;;;;;3.47;2.78;;;;;;;;;;5083953;28;20183;-73
2020/12/27 03:42:40;;;;;;;6.38;2.60;;;;;;;;;;5073240;28;20172;-74
2020/12/27 03:45:06;;;;;;;3.08;2.63;;;;;;;;;;5083897;28;20179;-72
2020/12/27 03:47:32;;;;;;;2.60;2.35;;;;;;;;;;5080324;28;20183;-73
2020/12/27 03:49:58;;;;;;;4.00;2.70;;;;;;;;;;5078105;28;20257;-73
2020/12/27 03:52:24;;;;;;;2.90;2.45;;;;;;;;;;5080701;28;20179;-75
2020/12/27 03:54:50;;;;;;;3.08;2.40;;;;;;;;;;5085808;28;20179;-72
2020/12/27 03:57:16;;;;;;;3.70;2.35;;;;;;;;;;5072857;28;20253;-74
2020/12/27 03:59:42;;;;;;;2.70;2.15;;;;;;;;;;5085431;28;20273;-73
2020/12/27 04:02:08;;;;;;;3.70;2.20;;;;;;;;;;5093317;28;20172;-73
2020/12/27 04:04:34;;;;;;;2.55;2.35;;;;;;;;;;5089058;28;20237;-74
2020/12/27 04:07:00;;;;;;;4.75;2.50;;;;;;;;;;5091741;28;20242;-74
2020/12/27 04:09:26;;;;;;;2.60;2.20;;;;;;;;;;5093323;28;20214;-73
2020/12/27 04:11:52;;;;;;;2.47;2.28;;;;;;;;;;5072565;28;20211;-73
2020/12/27 04:14:19;;;;;;;3.72;2.78;;;;;;;;;;5077833;28;20175;-73
2020/12/27 04:16:45;;;;;;;3.65;3.00;;;;;;;;;;5080184;28;20188;-73
2020/12/27 04:19:11;;;;;;;3.28;2.15;;;;;;;;;;5079322;28;20217;-73
2020/12/27 04:21:37;;;;;;;3.20;2.58;;;;;;;;;;5092138;28;20176;-75
2020/12/27 04:24:07;;;;;;;4.70;2.80;;;;;;;;;;5091405;28;20172;-74
2020/12/27 04:26:33;;;;;;;2.95;2.60;;;;;;;;;;5079718;28;20537;-75
2020/12/27 04:28:59;;;;;;;3.90;2.47;;;;;;;;;;5083658;28;20224;-74
2020/12/27 04:31:25;;;;;;;4.07;2.55;;;;;;;;;;5078972;28;20602;-73
2020/12/27 04:33:53;;;;;;;3.10;2.80;;;;;;;;;;5082133;28;20181;-73
2020/12/27 04:36:19;;;;;;;2.70;2.40;;;;;;;;;;5075275;28;20214;-74
2020/12/27 04:38:45;;;;;;;3.00;2.55;;;;;;;;;;5072951;28;20180;-75
2020/12/27 04:41:15;;;;;;;3.20;2.53;;;;;;;;;;5085553;28;20560;-74
2020/12/27 04:43:45;;;;;;;2.80;2.60;;;;;;;;;;5090846;28;20168;-75
2020/12/27 04:46:12;;;;;;;3.00;2.70;;;;;;;;;;5077797;28;20180;-74
2020/12/27 04:48:39;;;;;;;5.10;2.67;;;;;;;;;;5077516;28;20172;-73
2020/12/27 04:51:06;;;;;;;3.55;3.17;;;;;;;;;;5092520;28;20278;-72
2020/12/27 04:53:33;;;;;;;3.20;2.90;;;;;;;;;;5088959;28;20655;-74
2020/12/27 04:56:01;;;;;;;3.10;2.30;;;;;;;;;;5092621;28;20198;-74
2020/12/27 04:58:28;;;;;;;3.10;2.65;;;;;;;;;;5093909;28;20182;-73
2020/12/27 05:00:54;;;;;;;3.80;2.80;;;;;;;;;;5079893;28;20696;-75
2020/12/27 05:03:20;;;;;;;2.90;2.53;;;;;;;;;;5078375;28;20184;-73
2020/12/27 05:05:50;;;;;;;4.50;2.80;;;;;;;;;;5085591;28;20159;-73
2020/12/27 05:08:16;;;;;;;3.70;2.20;;;;;;;;;;5095671;28;20240;-74
2020/12/27 05:10:43;;;;;;;3.55;2.90;;;;;;;;;;5105042;28;20517;-72
2020/12/27 05:13:09;;;;;;;3.05;2.75;;;;;;;;;;5079270;28;20175;-75
2020/12/27 05:15:36;;;;;;;3.88;3.30;;;;;;;;;;5094432;28;20179;-72
2020/12/27 05:18:04;;;;;;;3.20;2.70;;;;;;;;;;5088585;28;20202;-71
2020/12/27 05:20:31;;;;;;;3.67;3.38;;;;;;;;;;5087006;28;20192;-74
2020/12/27 05:23:01;;;;;;;5.82;2.97;;;;;;;;;;5087650;28;20192;-75
2020/12/27 05:25:31;;;;;;;3.30;3.00;;;;;;;;;;5073864;28;20679;-74
2020/12/27 05:28:05;;;;;;;4.40;3.30;;;;;;;;;;5087865;28;20176;-73
2020/12/27 05:30:31;;;;;;;3.28;2.95;;;;;;;;;;5095601;28;20289;-73
2020/12/27 05:32:57;;;;;;;3.10;2.80;;;;;;;;;;5093608;28;20585;-74
2020/12/27 05:35:24;;;;;;;4.57;3.30;;;;;;;;;;5078530;28;20184;-76
2020/12/27 05:37:50;;;;;;;5.18;3.20;;;;;;;;;;5090953;28;20203;-72
2020/12/27 05:40:16;;;;;;;3.30;3.00;;;;;;;;;;5087328;28;20245;-72
2020/12/27 05:42:44;;;;;;;3.78;3.05;;;;;;;;;;5085662;28;20179;-74
2020/12/27 05:45:17;;;;;;;5.57;5.00;;;;;;;;;;5090946;28;20175;-74
2020/12/27 05:47:43;;;;;;;3.70;3.30;;;;;;;;;;5094922;28;20176;-74
2020/12/27 05:50:16;;;;;;;4.63;3.67;;;;;;;;;;5083975;28;20200;-75
2020/12/27 05:52:46;;;;;;;3.90;3.17;;;;;;;;;;5087742;28;20176;-74
2020/12/27 05:55:17;;;;;;;3.45;3.15;;;;;;;;;;5075318;28;20259;-74
2020/12/27 05:57:43;;;;;;;4.00;3.50;;;;;;;;;;5078617;28;20275;-73
2020/12/27 06:00:10;;;;;;;3.22;2.70;;;;;;;;;;5074950;28;20215;-74
2020/12/27 06:02:40;;;;;;;3.25;2.88;;;;;;;;;;5084102;28;20258;-73
2020/12/27 06:05:15;;;;;;;4.35;3.22;;;;;;;;;;5081453;28;20191;-75
2020/12/27 06:07:43;;;;;;;3.67;2.90;;;;;;;;;;5093248;28;20179;-72
2020/12/27 06:10:09;;;;;;;7.65;3.15;;;;;;;;;;5095201;28;20203;-75
2020/12/27 06:12:46;;;;;;;3.90;2.80;;;;;;;;;;5094150;28;20190;-74
2020/12/27 06:15:24;;;;;;;3.30;2.90;;;;;;;;;;5094386;28;20171;-72
2020/12/27 06:17:54;;;;;;;3.20;2.80;;;;;;;;;;5082449;28;20293;-73
2020/12/27 06:20:21;;;;;;;3.30;3.00;;;;;;;;;;5080377;28;20543;-73
2020/12/27 06:22:48;;;;;;;5.72;2.88;;;;;;;;;;5074347;28;20183;-74
2020/12/27 06:25:15;;;;;;;3.10;2.80;;;;;;;;;;5086404;28;20186;-73
2020/12/27 06:27:41;;;;;;;3.45;3.05;;;;;;;;;;5094122;28;20172;-72
2020/12/27 06:30:12;;;;;;;3.05;2.67;;;;;;;;;;5094469;28;20204;-74
2020/12/27 06:32:43;;;;;;;3.35;3.05;;;;;;;;;;5092924;28;20198;-74
2020/12/27 06:35:11;;;;;;;3.75;3.00;;;;;;;;;;5093797;28;20258;-73
2020/12/27 06:37:47;;;;;;;3.28;2.67;;;;;;;;;;5094427;28;20638;-73
2020/12/27 06:40:14;;;;;;;3.72;3.25;;;;;;;;;;5080411;28;20233;-73
2020/12/27 06:42:40;;;;;;;3.17;2.75;;;;;;;;;;5093887;28;20695;-72
2020/12/27 06:45:07;;;;;;;3.53;2.58;;;;;;;;;;5086800;28;20534;-73
2020/12/27 06:47:49;;;;;;;4.35;2.50;;;;;;;;;;5093847;28;20182;-75
2020/12/27 06:50:16;;;;;;;4.75;2.50;;;;;;;;;;5093733;28;20260;-72
2020/12/27 06:52:42;;;;;;;3.80;2.78;;;;;;;;;;5080389;28;20404;-74
2020/12/27 06:55:08;;;;;;;3.13;2.60;;;;;;;;;;5083795;28;20172;-72
2020/12/27 06:57:41;;;;;;;2.85;2.53;;;;;;;;;;5085380;28;20196;-74
2020/12/27 07:00:23;;;;;;;3.28;2.40;;;;;;;;;;5081506;28;20195;-75
2020/12/27 07:03:03;;;;;;;3.15;2.55;;;;;;;;;;5091447;28;20267;-75
2020/12/27 07:05:30;;;;;;;3.58;2.75;;;;;;;;;;5073317;28;20195;-74
2020/12/27 07:07:56;;;;;;;3.80;2.10;;;;;;;;;;5086490;28;20192;-73
2020/12/27 07:10:24;;;;;;;2.92;2.60;;;;;;;;;;5094251;28;20199;-76
2020/12/27 07:12:50;;;;;;;2.80;2.50;;;;;;;;;;5092911;28;20221;-74
2020/12/27 07:15:16;;;;;;;3.30;2.33;;;;;;;;;;5084329;28;20177;-73
2020/12/27 07:17:42;;;;;;;2.88;2.58;;;;;;;;;;5093374;28;20287;-73
2020/12/27 07:20:15;;;;;;;4.88;2.60;;;;;;;;;;5091997;28;20285;-72
2020/12/27 07:22:44;;;;;;;2.78;2.33;;;;;;;;;;5093742;28;20509;-72
2020/12/27 07:25:14;;;;;;;3.33;2.50;;;;;;;;;;5093610;28;20175;-73
2020/12/27 07:27:41;;;;;;;3.22;2.53;;;;;;;;;;5090289;28;20175;-74
2020/12/27 07:30:07;;;;;;;5.10;2.60;;;;;;;;;;5094506;28;20664;-74
2020/12/27 07:32:41;;;;;;;3.05;2.65;;;;;;;;;;5091222;28;20519;-74
2020/12/27 07:35:09;;;;;;;2.72;2.42;;;;;;;;;;5074156;28;20176;-75
2020/12/27 07:37:35;;;;;;;3.45;2.35;;;;;;;;;;5082291;28;20208;-74
2020/12/27 07:40:02;;;;;;;3.53;2.50;;;;;;;;;;5081524;28;20237;-75
2020/12/27 07:42:33;;;;;;;2.90;2.38;;;;;;;;;;5079799;28;20533;-74
2020/12/27 07:45:00;;;;;;;2.92;2.22;;;;;;;;;;5093683;28;20176;-73
2020/12/27 07:47:27;;;;;;;3.00;2.20;;;;;;;;;;5087831;28;20178;-74
2020/12/27 07:50:03;;;;;;;2.50;2.20;;;;;;;;;;5082722;28;20195;-73
2020/12/27 07:52:48;;;;;;;2.88;2.13;;;;;;;;;;5079750;28;20207;-74
2020/12/27 07:55:43;;;;;;;2.80;2.30;;;;;;;;;;5088983;28;20365;-74
2020/12/27 07:58:09;;;;;;;2.97;2.50;;;;;;;;;;5082546;28;20203;-73
2020/12/27 08:00:36;;;;;;;2.90;2.17;;;;;;;;;;5093403;28;20190;-76
2020/12/27 08:03:06;;;;;;;2.90;2.20;;;;;;;;;;5082340;28;20168;-73
2020/12/27 08:05:32;;;;;;;2.55;2.22;;;;;;;;;;5079625;28;20179;-73
2020/12/27 08:08:06;;;;;;;2.70;2.00;;;;;;;;;;5089666;28;20191;-73
2020/12/27 08:10:32;;;;;;;2.90;2.17;;;;;;;;;;5088662;28;20202;-75
2020/12/27 08:12:59;;;;;;;2.72;2.10;;;;;;;;;;5082839;28;20180;-74
2020/12/27 08:15:26;;;;;;;3.50;2.50;;;;;;;;;;5072617;28;20256;-74
2020/12/27 08:17:56;;;;;;;3.90;2.55;;;;;;;;;;5081342;28;20199;-75
2020/12/27 08:20:22;;;;;;;2.40;2.20;;;;;;;;;;5092588;28;20281;-75
2020/12/27 08:22:58;;;;;;;3.60;2.40;;;;;;;;;;5087570;28;20176;-73
2020/12/27 08:25:25;;;;;;;3.60;2.30;;;;;;;;;;5072432;28;20164;-75
2020/12/27 08:27:58;;;;;;;2.60;2.30;;;;;;;;;;5074250;28;20241;-74
2020/12/27 08:30:25;;;;;;;3.17;2.50;;;;;;;;;;5092294;28;20568;-74
2020/12/27 08:33:06;;;;;;;2.75;2.30;;;;;;;;;;5077812;28;20264;-74
2020/12/27 08:35:32;;;;;;;3.05;2.38;;;;;;;;;;5086288;28;20577;-73
2020/12/27 08:38:17;;;;;;;3.33;2.22;;;;;;;;;;5096430;28;20203;-73
2020/12/27 08:40:45;;;;;;;2.60;2.30;;;;;;;;;;5091620;28;20708;-73
2020/12/27 08:43:16;;;;;;;3.00;2.58;;;;;;;;;;5084587;28;20179;-74
2020/12/27 08:45:45;;;;;;;2.60;2.15;;;;;;;;;;5089335;28;20168;-76
2020/12/27 08:48:24;;;;;;;2.47;1.95;;;;;;;;;;5083149;28;20189;-73
2020/12/27 08:50:55;;;;;;;3.90;2.28;;;;;;;;;;5095094;28;20210;-77
2020/12/27 08:53:21;;;;;;;3.63;2.65;;;;;;;;;;5096389;28;20180;-77
2020/12/27 08:55:47;;;;;;;2.53;2.20;;;;;;;;;;5079353;28;20246;-75
2020/12/27 08:58:14;;;;;;;5.93;2.50;;;;;;;;;;5084131;28;20193;-75
2020/12/27 09:00:40;;;;;;;4.40;2.30;;;;;;;;;;5080057;28;20223;-74
2020/12/27 09:03:07;;;;;;;2.58;2.25;;;;;;;;;;5075873;28;20222;-73
2020/12/27 09:05:36;;;;;;;4.13;2.22;;;;;;;;;;5075611;28;20518;-73
2020/12/27 09:08:13;;;;;;;3.40;2.50;;;;;;;;;;5076499;28;20199;-74
2020/12/27 09:10:42;;;;;;;2.90;2.60;;;;;;;;;;5096954;28;20195;-73
2020/12/27 09:13:09;;;;;;;4.38;2.55;;;;;;;;;;5096002;28;20168;-72
2020/12/27 09:15:35;;;;;;;3.42;2.70;;;;;;;;;;5095638;28;20175;-72
2020/12/27 09:18:03;;;;;;;4.03;2.80;;;;;;;;;;5095862;28;20203;-71
2020/12/27 09:20:30;;;;;;;3.25;2.50;;;;;;;;;;5095899;28;20198;-73
2020/12/27 09:22:56;;;;;;;2.95;2.65;;;;;;;;;;5095788;28;20171;-75
2020/12/27 09:25:23;;;;;;;3.35;2.20;;;;;;;;;;5095395;28;20171;-76
2020/12/27 09:27:50;;;;;;;3.22;2.55;;;;;;;;;;5095663;28;20180;-75
2020/12/27 09:30:17;;;;;;;3.15;2.40;;;;;;;;;;5083239;28;20200;-74
2020/12/27 09:32:43;;;;;;;3.58;2.50;;;;;;;;;;5075306;28;20176;-75
2020/12/27 09:35:16;;;;;;;2.60;2.35;;;;;;;;;;5075019;28;20172;-73
2020/12/27 09:37:42;;;;;;;2.55;2.35;;;;;;;;;;5075627;28;20204;-73
2020/12/27 09:40:08;;;;;;;3.38;2.53;;;;;;;;;;5075177;28;20199;-75
2020/12/27 09:42:34;;;;;;;3.10;2.80;;;;;;;;;;5095436;28;20557;-73
2020/12/27 09:45:16;;;;;;;2.85;2.20;;;;;;;;;;5093227;28;20184;-72
2020/12/27 09:47:49;;;;;;;2.60;2.30;;;;;;;;;;5095499;28;20186;-73
2020/12/27 09:50:15;;;;;;;3.90;2.10;;;;;;;;;;5091324;28;20196;-73
2020/12/27 09:52:45;;;;;;;2.60;2.28;;;;;;;;;;5085880;28;20179;-73
2020/12/27 09:55:11;;;;;;;3.42;2.47;;;;;;;;;;5094660;28;20167;-76
2020/12/27 09:57:37;;;;;;;2.95;2.55;;;;;;;;;;5095072;28;20533;-74
2020/12/27 10:00:04;;;;;;;3.22;2.30;;;;;;;;;;5090047;28;20196;-74
2020/12/27 10:02:30;;;;;;;4.35;2.67;;;;;;;;;;5086358;28;20641;-72
2020/12/27 10:04:56;;;;;;;2.30;2.10;;;;;;;;;;5094659;28;20176;-75
2020/12/27 10:07:22;;;;;;;2.55;2.33;;;;;;;;;;5095059;28;20510;-74
2020/12/27 10:09:49;;;;;;;4.65;2.90;;;;;;;;;;5095321;28;20215;-72
2020/12/27 10:12:15;;;;;;;2.65;2.33;;;;;;;;;;5074843;28;20180;-73
2020/12/27 10:14:41;;;;;;;3.35;2.30;;;;;;;;;;5074162;28;20586;-73
2020/12/27 10:17:08;;;;;;;3.47;2.38;;;;;;;;;;5073177;28;20261;-75
2020/12/27 10:19:34;;;;;;;2.72;2.40;;;;;;;;;;5074296;28;20188;-72
2020/12/27 10:22:00;;;;;;;3.10;2.13;;;;;;;;;;5074616;28;20179;-73
2020/12/27 10:24:28;;;;;;;2.55;2.35;;;;;;;;;;5074023;28;20590;-74
2020/12/27 10:26:54;;;;;;;2.50;2.25;;;;;;;;;;5074464;28;20180;-73
2020/12/27 10:29:20;;;;;;;2.70;2.05;;;;;;;;;;5083603;28;20222;-76
2020/12/27 10:31:57;;;;;;;4.38;2.20;;;;;;;;;;5074296;28;20176;-75
2020/12/27 10:34:23;;;;;;;2.55;2.15;;;;;;;;;;5073598;28;20262;-72
2020/12/27 10:36:50;;;;;;;2.83;2.53;;;;;;;;;;5074255;28;20210;-73
2020/12/27 10:39:16;;;;;;;2.63;2.40;;;;;;;;;;5073671;28;20180;-74
2020/12/27 10:41:43;;;;;;;2.38;2.03;;;;;;;;;;5087266;28;20171;-75
2020/12/27 10:44:09;;;;;;;2.40;1.83;;;;;;;;;;5093767;28;20190;-74
2020/12/27 10:46:35;;;;;;;4.15;2.10;;;;;;;;;;5094183;28;20537;-75
2020/12/27 10:49:02;;;;;;;2.20;1.60;;;;;;;;;;5094548;28;20175;-74
2020/12/27 10:51:28;;;;;;;2.65;1.90;;;;;;;;;;5093982;28;20556;-73
2020/12/27 10:53:54;;;;;;;2.78;1.95;;;;;;;;;;5093719;28;20175;-78
2020/12/27 10:56:20;;;;;;;3.22;2.00;;;;;;;;;;5093366;28;20198;-73
2020/12/27 10:58:46;;;;;;;2.00;1.70;;;;;;;;;;5093774;28;20198;-76
2020/12/27 11:01:12;;;;;;;2.40;1.80;;;;;;;;;;5094134;28;20248;-74
2020/12/27 11:03:38;;;;;;;2.20;1.60;;;;;;;;;;5093546;28;20178;-75
2020/12/27 11:06:04;;;;;;;2.10;1.77;;;;;;;;;;5093929;28;20171;-76
2020/12/27 11:08:30;;;;;;;2.40;1.70;;;;;;;;;;5093591;28;20190;-72
2020/12/27 11:10:56;;;;;;;2.90;1.58;;;;;;;;;;5112759;28;20194;-74
2020/12/27 11:13:23;;;;;;;2.58;1.70;;;;;;;;;;5075202;28;20172;-73
2020/12/27 11:15:49;;;;;;;2.50;1.70;;;;;;;;;;5073191;28;20199;-76
2020/12/27 11:18:15;;;;;;;2.75;1.70;;;;;;;;;;5073539;28;20236;-76
2020/12/27 11:20:41;;;;;;;2.28;2.05;;;;;;;;;;5073377;28;20199;-76
2020/12/27 11:23:07;;;;;;;2.60;1.63;;;;;;;;;;5079614;28;20262;-76
2020/12/27 11:25:33;;;;;;;2.38;1.92;;;;;;;;;;5093237;28;20190;-75
2020/12/27 11:28:00;;;;;;;2.30;1.80;;;;;;;;;;5093497;28;20199;-74
2020/12/27 11:30:26;;;;;;;3.35;1.90;;;;;;;;;;5080074;28;20200;-73
2020/12/27 11:32:52;;;;;;;2.50;1.83;;;;;;;;;;5073206;28;20181;-73
2020/12/27 11:35:18;;;;;;;3.00;2.00;;;;;;;;;;5072741;28;20183;-76
2020/12/27 11:37:44;;;;;;;2.45;1.90;;;;;;;;;;5073057;28;20261;-76
2020/12/27 11:40:10;;;;;;;2.60;1.90;;;;;;;;;;5073019;28;20211;-75
2020/12/27 11:42:37;;;;;;;3.30;1.98;;;;;;;;;;5092898;28;20187;-74
2020/12/27 11:45:04;;;;;;;2.85;1.70;;;;;;;;;;5092650;28;20526;-73
2020/12/27 11:47:30;;;;;;;2.53;2.08;;;;;;;;;;5093187;28;20179;-74
2020/12/27 11:49:56;;;;;;;3.15;1.90;;;;;;;;;;5093071;28;20195;-74
2020/12/27 11:52:25;;;;;;;2.30;1.80;;;;;;;;;;5073419;28;20181;-75
2020/12/27 11:54:52;;;;;;;3.35;1.77;;;;;;;;;;5077908;28;20618;-76
2020/12/27 11:57:18;;;;;;;2.40;1.80;;;;;;;;;;5091330;28;20211;-76
2020/12/27 11:59:44;;;;;;;2.20;1.50;;;;;;;;;;5090909;28;20191;-72
2020/12/27 12:02:10;;;;;;;2.58;1.58;;;;;;;;;;5093010;28;20520;-74
2020/12/27 12:04:36;;;;;;;2.13;1.50;;;;;;;;;;5086683;28;20179;-74
2020/12/27 12:07:03;;;;;;;2.42;2.22;;;;;;;;;;5079779;28;20180;-74
2020/12/27 12:09:29;;;;;;;2.55;2.00;;;;;;;;;;5095777;28;20209;-74
2020/12/27 12:11:55;;;;;;;3.08;1.80;;;;;;;;;;5082563;28;20275;-76
2020/12/27 12:14:21;;;;;;;2.28;1.90;;;;;;;;;;5071532;28;20717;-76
2020/12/27 12:16:47;;;;;;;2.55;1.88;;;;;;;;;;5091786;28;20214;-73
2020/12/27 12:19:13;;;;;;;2.30;1.90;;;;;;;;;;5093513;28;20540;-76
2020/12/27 12:21:39;;;;;;;5.40;2.20;;;;;;;;;;5093412;28;20254;-73
2020/12/27 12:24:06;;;;;;;2.40;1.63;;;;;;;;;;5078413;28;20578;-75
2020/12/27 12:26:32;;;;;;;2.42;1.88;;;;;;;;;;5073307;28;20187;-75
2020/12/27 12:29:00;;;;;;;2.28;1.95;;;;;;;;;;5084026;28;20179;-75
2020/12/27 12:31:27;;;;;;;3.10;1.90;;;;;;;;;;5093220;28;20672;-74
2020/12/27 12:33:53;;;;;;;2.70;2.10;;;;;;;;;;5092960;28;20180;-73
2020/12/27 12:36:20;;;;;;;2.60;1.98;;;;;;;;;;5093256;28;20560;-73
2020/12/27 12:38:47;;;;;;;2.30;1.90;;;;;;;;;;5093284;28;20245;-74
2020/12/27 12:41:15;;;;;;;3.05;2.10;;;;;;;;;;5082695;28;20203;-72
2020/12/27 12:43:42;;;;;;;2.53;2.15;;;;;;;;;;5092880;28;20524;-74
2020/12/27 12:46:09;;;;;;;2.50;1.80;;;;;;;;;;5093029;28;20171;-74
2020/12/27 12:48:35;;;;;;;2.75;2.30;;;;;;;;;;5093042;28;20256;-72
2020/12/27 12:51:01;;;;;;;2.40;1.90;;;;;;;;;;5074917;28;20207;-72
2020/12/27 12:53:27;;;;;;;3.28;2.10;;;;;;;;;;5082164;28;20183;-73
2020/12/27 12:55:53;;;;;;;2.50;2.20;;;;;;;;;;5092464;28;20249;-73
2020/12/27 12:58:19;;;;;;;3.60;2.25;;;;;;;;;;5082515;28;20187;-75
2020/12/27 13:00:46;;;;;;;4.18;2.10;;;;;;;;;;5080711;28;20207;-73
2020/12/27 13:03:12;;;;;;;3.40;2.20;;;;;;;;;;5079154;28;20187;-74
2020/12/27 13:05:38;;;;;;;2.80;2.05;;;;;;;;;;5091999;28;20194;-72
2020/12/27 13:08:07;;;;;;;4.15;2.90;;;;;;;;;;5075801;28;20234;-74
2020/12/27 13:10:36;;;;;;;2.83;1.90;;;;;;;;;;5092326;28;20229;-74
2020/12/27 13:13:03;;;;;;;6.63;2.80;;;;;;;;;;5087107;28;20259;-75
2020/12/27 13:15:30;;;;;;;2.83;2.30;;;;;;;;;;5078203;28;20228;-75
2020/12/27 13:17:56;;;;;;;2.85;2.55;;;;;;;;;;5076917;28;20994;-73
2020/12/27 13:20:23;;;;;;;3.22;2.20;;;;;;;;;;5080205;28;20681;-76
2020/12/27 13:22:49;;;;;;;2.35;2.03;;;;;;;;;;5077366;28;20260;-74
2020/12/27 13:25:15;;;;;;;2.90;2.40;;;;;;;;;;5079331;28;20257;-73
2020/12/27 13:27:41;;;;;;;3.83;2.92;;;;;;;;;;5075227;28;20544;-74
2020/12/27 13:30:11;;;;;;;3.08;2.40;;;;;;;;;;5092460;28;20614;-78
2020/12/27 13:32:37;;;;;;;4.32;2.55;;;;;;;;;;5092185;28;20215;-75
2020/12/27 13:35:03;;;;;;;2.75;2.28;;;;;;;;;;5079232;28;20188;-75
2020/12/27 13:37:30;;;;;;;2.75;2.20;;;;;;;;;;5077708;28;20207;-75
2020/12/27 13:39:56;;;;;;;2.80;2.30;;;;;;;;;;5074730;28;20203;-72
2020/12/27 13:42:22;;;;;;;3.00;2.50;;;;;;;;;;5091500;28;20171;-75
2020/12/27 13:44:48;;;;;;;2.80;2.30;;;;;;;;;;5077922;28;20184;-72
2020/12/27 13:47:14;;;;;;;2.72;2.38;;;;;;;;;;5071248;28;20206;-75
2020/12/27 13:49:41;;;;;;;3.88;2.72;;;;;;;;;;5082932;28;20211;-71
2020/12/27 13:52:07;;;;;;;2.95;2.60;;;;;;;;;;5090427;28;20187;-74
2020/12/27 13:54:33;;;;;;;3.60;2.40;;;;;;;;;;5076180;28;20218;-74
2020/12/27 13:56:59;;;;;;;3.20;2.90;;;;;;;;;;5090375;28;20207;-73
2020/12/27 13:59:25;;;;;;;3.13;2.55;;;;;;;;;;5091124;28;20199;-74
2020/12/27 14:01:51;;;;;;;5.65;4.60;;;;;;;;;;5091234;28;20591;-74
2020/12/27 14:04:17;;;;;;;3.10;2.70;;;;;;;;;;5091086;28;20191;-75
2020/12/27 14:06:44;;;;;;;2.80;2.45;;;;;;;;;;5085010;28;20180;-75
2020/12/27 14:09:10;;;;;;;4.13;3.35;;;;;;;;;;5078013;28;20671;-75
2020/12/27 14:11:38;;;;;;;4.10;2.75;;;;;;;;;;5072803;28;20238;-75
2020/12/27 14:14:05;;;;;;;3.75;3.20;;;;;;;;;;5070521;28;20198;-76
2020/12/27 14:16:31;;;;;;;3.25;2.80;;;;;;;;;;5070934;28;20688;-75
2020/12/27 14:18:57;;;;;;;3.78;2.90;;;;;;;;;;5070907;28;20184;-76
2020/12/27 14:21:23;;;;;;;3.80;3.13;;;;;;;;;;5070512;28;20196;-75
2020/12/27 14:23:50;;;;;;;5.07;3.00;;;;;;;;;;5070262;28;20184;-72
2020/12/27 14:26:16;;;;;;;3.13;2.83;;;;;;;;;;5070681;28;20238;-76
2020/12/27 14:28:42;;;;;;;4.70;3.30;;;;;;;;;;5079530;28;20167;-75
2020/12/27 14:31:09;;;;;;;3.80;3.05;;;;;;;;;;5076331;28;20199;-77
2020/12/27 14:33:36;;;;;;;3.50;3.17;;;;;;;;;;5090265;28;20179;-74
2020/12/27 14:36:02;;;;;;;3.90;2.63;;;;;;;;;;5090554;28;20176;-77
2020/12/27 14:38:28;;;;;;;3.60;3.13;;;;;;;;;;5090677;28;20213;-75
2020/12/27 14:40:55;;;;;;;3.15;2.85;;;;;;;;;;5081663;28;20203;-74
2020/12/27 14:43:21;;;;;;;3.78;3.10;;;;;;;;;;5089950;28;20175;-73